createdAt,value
2017-08-14T00:05:07.987Z,12.1
2017-08-14T00:15:21.788Z,12.2
2017-08-14T00:25:36.443Z,12.1
2017-08-14T00:35:51.631Z,12.5
2017-08-14T00:46:05.381Z,12.1
2017-08-14T00:56:20.224Z,11.9
2017-08-14T01:06:34.824Z,12.3
2017-08-14T01:16:50.508Z,12
2017-08-14T01:27:05.680Z,11.8
2017-08-14T01:37:20.963Z,11.9
2017-08-14T01:47:35.720Z,12.1
2017-08-14T01:57:50.043Z,12.7
2017-08-14T02:08:05.096Z,12.8
2017-08-14T02:18:19.340Z,12.5
2017-08-14T02:28:34.625Z,12.1
2017-08-14T02:38:48.974Z,12.6
2017-08-14T02:49:03.533Z,12
2017-08-14T02:59:19.256Z,12.3
2017-08-14T03:09:33.578Z,11.9
2017-08-14T03:19:49.060Z,12
2017-08-14T03:30:03.569Z,11.7
2017-08-14T03:40:19.199Z,11.9
2017-08-14T03:50:33.367Z,11.7
2017-08-14T04:00:47.564Z,11.8
2017-08-14T04:11:01.438Z,11.7
2017-08-14T04:21:15.841Z,11.8
2017-08-14T04:31:30.966Z,11.6
2017-08-14T04:41:45.477Z,11.9
2017-08-14T04:52:00.077Z,11.7
2017-08-14T05:02:15.057Z,12
2017-08-14T05:12:30.157Z,11.9
2017-08-14T05:22:44.719Z,12.7
2017-08-14T05:32:58.891Z,12.9
2017-08-14T05:43:14.312Z,12.9
2017-08-14T05:53:29.018Z,13.5
2017-08-14T06:03:44.617Z,13.6
2017-08-14T06:13:59.241Z,13.8
2017-08-14T06:24:14.789Z,14.2
2017-08-14T06:34:30.300Z,14.6
2017-08-14T06:44:45.387Z,15
2017-08-14T06:55:00.144Z,15.3
2017-08-14T07:05:15.555Z,15.4
2017-08-14T07:15:31.203Z,15.6
2017-08-14T07:25:45.553Z,17.4
2017-08-14T07:36:00.204Z,19
2017-08-14T07:46:15.849Z,19.8
2017-08-14T07:56:30.982Z,20.4
2017-08-14T08:06:46.208Z,21.4
2017-08-14T08:17:01.064Z,21.8
2017-08-14T08:27:15.818Z,21.7
2017-08-14T08:37:31.488Z,22.8
2017-08-14T08:47:46.725Z,23.5
2017-08-14T08:58:02.217Z,23.9
2017-08-14T09:08:16.922Z,23.7
2017-08-14T09:18:31.639Z,24
2017-08-14T09:28:46.684Z,24.7
2017-08-14T09:39:02.636Z,24.7
2017-08-14T09:49:16.703Z,25.1
2017-08-14T09:59:31.650Z,24.7
2017-08-14T10:09:47.582Z,25.1
2017-08-14T10:20:03.546Z,25.4
2017-08-14T10:30:19.045Z,25.8
2017-08-14T10:40:34.600Z,25.9
2017-08-14T10:50:50.012Z,26.2
2017-08-14T11:01:05.037Z,25.9
2017-08-14T11:11:19.939Z,25.3
2017-08-14T11:21:34.330Z,26.6
2017-08-14T11:31:49.265Z,25.1
2017-08-14T11:42:03.245Z,26.3
2017-08-14T11:52:17.744Z,27.2
2017-08-14T12:02:33.008Z,26.8
2017-08-14T12:12:47.034Z,26.3
2017-08-14T12:23:02.513Z,27.1
2017-08-14T12:33:17.829Z,26.6
2017-08-14T12:43:32.665Z,27.4
2017-08-14T12:53:47.451Z,25.7
2017-08-14T13:04:02.308Z,24.8
2017-08-14T13:14:16.317Z,26.1
2017-08-14T13:24:32.024Z,26.9
2017-08-14T13:34:46.133Z,26.6
2017-08-14T13:45:01.471Z,28.3
2017-08-14T13:55:16.521Z,27.8
2017-08-14T14:05:32.135Z,28.1
2017-08-14T14:15:46.114Z,27.4
2017-08-14T14:26:00.841Z,28.2
2017-08-14T14:36:14.933Z,27.8
2017-08-14T14:46:30.668Z,28
2017-08-14T14:56:46.545Z,28.2
2017-08-14T15:07:02.472Z,27.9
2017-08-14T15:17:16.997Z,27.6
2017-08-14T15:27:32.432Z,26.8
2017-08-14T15:37:48.092Z,26.8
2017-08-14T15:48:02.242Z,25.6
2017-08-14T15:58:16.853Z,27.2
2017-08-14T16:08:31.127Z,26.2
2017-08-14T16:18:46.875Z,25.6
2017-08-14T16:29:02.476Z,25.1
2017-08-14T16:39:18.139Z,27
2017-08-14T16:49:32.697Z,26.7
2017-08-14T16:59:47.319Z,25.8
2017-08-14T17:10:02.668Z,26.4
2017-08-14T17:20:18.254Z,25.6
2017-08-14T17:30:34.122Z,25.7
2017-08-14T17:40:49.623Z,25.1
2017-08-14T17:51:03.637Z,23.9
2017-08-14T18:01:18.711Z,23.1
2017-08-14T18:11:32.599Z,22.9
2017-08-14T18:21:46.828Z,22.6
2017-08-14T18:32:00.649Z,22.3
2017-08-14T18:42:15.915Z,22.1
2017-08-14T18:52:30.821Z,21.8
2017-08-14T19:02:46.156Z,21.3
2017-08-14T19:13:00.825Z,21.3
2017-08-14T19:23:15.484Z,21
2017-08-14T19:33:29.604Z,20.4
2017-08-14T19:43:43.606Z,20.1
2017-08-14T19:53:59.402Z,19.9
2017-08-14T20:04:13.742Z,19.6
2017-08-14T20:14:28.726Z,19.4
2017-08-14T20:24:43.520Z,19
2017-08-14T20:34:57.996Z,18.9
2017-08-14T20:45:13.102Z,19
2017-08-14T20:55:28.640Z,19.1
2017-08-14T21:05:44.286Z,18.9
2017-08-14T21:15:59.121Z,18.7
2017-08-14T21:26:14.228Z,18.5
2017-08-14T21:36:28.070Z,18.1
2017-08-14T21:46:43.787Z,18.5
2017-08-14T21:56:58.917Z,18.3
2017-08-14T22:07:14.513Z,18.2
2017-08-14T22:17:29.446Z,18.3
2017-08-14T22:27:43.960Z,19.4
2017-08-14T22:37:58.890Z,19.9
2017-08-14T22:48:13.520Z,19.9
2017-08-14T22:58:27.380Z,19.7
2017-08-14T23:08:42.916Z,19.6
2017-08-14T23:18:57.360Z,19.4
2017-08-14T23:29:11.724Z,19.2
2017-08-14T23:39:27.207Z,19.1
2017-08-14T23:49:42.831Z,18.8
2017-08-14T23:59:56.758Z,18.6
